首页
METAR-TAF:

METAR-TAF

机场 :

里加, 拉脱维亚

里加国际机场

纬度: 56-55N, 经度: 023-58E, 海拔: 10米

当前天气观测

该预报发布于20分钟前的23:50 UTC
静风
温度 -6°C
湿度 100%
气压 994 hPa
能見度: 7000
少量云层高于4400英尺
小雪

METAR: EVRA 172350Z 00000KT 7000 -SN FEW044 M06/M06 Q0994 RESN R18/490532 NOSIG

时间: 02:10 (00:10 UTC)

预报

该预报发布于1小时和9分钟前的23:01 UTC
预报有效从18日的 00点(UTC)到 18日的 24点(UTC)
风速5节,风向南转西南
能見度: 6000
阴天层高于1500英尺
小雪
短暂存在
从 18日的 00点(UTC)到 18日的 05点(UTC)
能見度: 2000
多云层高于1000英尺
短暂存在
从 18日的 15点(UTC)到 18日的 24点(UTC)
能見度: 3000
多云层高于500英尺
轻雾

TAF: EVRA 172301Z 1800/1824 20005KT 6000 -SN OVC015 TEMPO 1800/1805 2000 SN BKN010 TEMPO 1815/1824 3000 BR BKN005

超过4000个机场的气象观测和天气预报(METAR&TAF报告)。

可查询的气象台以黄色和红色小点在地图上表示。

将鼠标移到小点上方,可查看气象台名称。

然后点击查看天气观测和预报。

如需切换地图:点击带黑十字的绿色按钮放大地图;点击带横线的绿色按钮缩小地图;或者点击绿色箭头查看邻近地区的地图。


METAR-TAF: